Terminal Aerodrome Forecast
Issued by NWS

Home | Current Version | Previous Version | Text Only | Print | Product List | Glossary On
Versions: 1 2 3 4 5 6 7 8 9 10 11 12 13 14 15
000
FTUS46 KSTO 072335
TAFMHR
TAF
KMHR 072335Z 0800/0824 22012G17KT P6SM FEW150 SCT250
     FM080400 16007KT P6SM SCT050 SCT250
     FM081500 19010G15KT P6SM SCT050 OVC100=

USA.gov is the U.S. government's official web portal to all federal, state and local government web resources and services.